sensor_id;sensor_type;location;lat;lon;timestamp;P1;durP1;ratioP1;P2;durP2;ratioP2
23236;SDS011;11787;52.018;8.570;2022-11-15T07:14:31;9.55;;;6.13;;
23236;SDS011;11787;52.018;8.570;2022-11-15T07:16:57;7.68;;;5.93;;
23236;SDS011;11787;52.018;8.570;2022-11-15T07:19:22;6.57;;;5.80;;
23236;SDS011;11787;52.018;8.570;2022-11-15T07:21:48;6.00;;;5.40;;
23236;SDS011;11787;52.018;8.570;2022-11-15T07:24:13;6.88;;;5.43;;
23236;SDS011;11787;52.018;8.570;2022-11-15T07:26:39;6.78;;;5.60;;
23236;SDS011;11787;52.018;8.570;2022-11-15T07:29:04;6.70;;;5.00;;
23236;SDS011;11787;52.018;8.570;2022-11-15T07:31:30;7.40;;;5.28;;
23236;SDS011;11787;52.018;8.570;2022-11-15T07:33:56;7.78;;;5.05;;
23236;SDS011;11787;52.018;8.570;2022-11-15T07:36:21;6.72;;;5.90;;
23236;SDS011;11787;52.018;8.570;2022-11-15T07:38:47;7.82;;;5.28;;
23236;SDS011;11787;52.018;8.570;2022-11-15T07:41:13;8.10;;;5.53;;
23236;SDS011;11787;52.018;8.570;2022-11-15T07:43:38;7.13;;;5.15;;
23236;SDS011;11787;52.018;8.570;2022-11-15T07:46:07;5.75;;;4.90;;
23236;SDS011;11787;52.018;8.570;2022-11-15T07:48:36;10.15;;;5.38;;
23236;SDS011;11787;52.018;8.570;2022-11-15T07:51:05;6.70;;;5.10;;
23236;SDS011;11787;52.018;8.570;2022-11-15T07:53:31;9.25;;;5.45;;
23236;SDS011;11787;52.018;8.570;2022-11-15T07:55:57;7.25;;;5.57;;
23236;SDS011;11787;52.018;8.570;2022-11-15T07:58:23;8.18;;;4.80;;
23236;SDS011;11787;52.018;8.570;2022-11-15T08:00:48;8.38;;;4.95;;
23236;SDS011;11787;52.018;8.570;2022-11-15T08:03:15;6.65;;;5.18;;
23236;SDS011;11787;52.018;8.570;2022-11-15T08:05:42;7.55;;;5.13;;
23236;SDS011;11787;52.018;8.570;2022-11-15T08:08:09;6.03;;;4.53;;
23236;SDS011;11787;52.018;8.570;2022-11-15T08:10:36;6.57;;;5.10;;
23236;SDS011;11787;52.018;8.570;2022-11-15T08:13:03;7.40;;;5.18;;
23236;SDS011;11787;52.018;8.570;2022-11-15T08:15:33;6.63;;;4.40;;
23236;SDS011;11787;52.018;8.570;2022-11-15T08:18:00;6.07;;;4.93;;
23236;SDS011;11787;52.018;8.570;2022-11-15T08:20:28;6.20;;;4.53;;
23236;SDS011;11787;52.018;8.570;2022-11-15T08:22:55;6.40;;;4.70;;
23236;SDS011;11787;52.018;8.570;2022-11-15T08:25:22;4.88;;;4.38;;
23236;SDS011;11787;52.018;8.570;2022-11-15T08:27:50;6.22;;;4.80;;
23236;SDS011;11787;52.018;8.570;2022-11-15T08:30:16;6.30;;;4.43;;
23236;SDS011;11787;52.018;8.570;2022-11-15T08:32:42;6.25;;;4.53;;
23236;SDS011;11787;52.018;8.570;2022-11-15T08:35:08;5.35;;;3.97;;
23236;SDS011;11787;52.018;8.570;2022-11-15T08:37:33;5.78;;;4.38;;
23236;SDS011;11787;52.018;8.570;2022-11-15T08:39:59;6.10;;;4.65;;
23236;SDS011;11787;52.018;8.570;2022-11-15T08:42:25;7.75;;;4.05;;
23236;SDS011;11787;52.018;8.570;2022-11-15T08:44:51;5.43;;;4.00;;
23236;SDS011;11787;52.018;8.570;2022-11-15T08:47:16;5.03;;;3.95;;
23236;SDS011;11787;52.018;8.570;2022-11-15T08:49:42;4.40;;;3.75;;
23236;SDS011;11787;52.018;8.570;2022-11-15T08:52:07;6.55;;;3.55;;
23236;SDS011;11787;52.018;8.570;2022-11-15T08:54:33;5.28;;;3.38;;
23236;SDS011;11787;52.018;8.570;2022-11-15T08:56:58;4.13;;;3.45;;
23236;SDS011;11787;52.018;8.570;2022-11-15T08:59:24;4.38;;;3.33;;
23236;SDS011;11787;52.018;8.570;2022-11-15T09:01:49;6.10;;;3.38;;
23236;SDS011;11787;52.018;8.570;2022-11-15T09:04:15;4.63;;;3.00;;
23236;SDS011;11787;52.018;8.570;2022-11-15T09:06:40;7.40;;;3.40;;
23236;SDS011;11787;52.018;8.570;2022-11-15T09:09:06;5.22;;;2.75;;
23236;SDS011;11787;52.018;8.570;2022-11-15T09:11:32;4.28;;;2.80;;
23236;SDS011;11787;52.018;8.570;2022-11-15T09:13:58;4.00;;;2.40;;
23236;SDS011;11787;52.018;8.570;2022-11-15T09:16:23;4.78;;;2.53;;
23236;SDS011;11787;52.018;8.570;2022-11-15T09:18:49;3.58;;;2.40;;
23236;SDS011;11787;52.018;8.570;2022-11-15T09:21:14;3.25;;;2.47;;
23236;SDS011;11787;52.018;8.570;2022-11-15T09:23:40;3.55;;;2.65;;
23236;SDS011;11787;52.018;8.570;2022-11-15T09:26:06;3.28;;;2.42;;
23236;SDS011;11787;52.018;8.570;2022-11-15T09:28:32;3.88;;;2.47;;
23236;SDS011;11787;52.018;8.570;2022-11-15T09:30:58;7.25;;;2.80;;
23236;SDS011;11787;52.018;8.570;2022-11-15T09:33:26;4.60;;;2.05;;
23236;SDS011;11787;52.018;8.570;2022-11-15T09:35:52;3.90;;;2.50;;
23236;SDS011;11787;52.018;8.570;2022-11-15T09:38:18;5.03;;;2.92;;
23236;SDS011;11787;52.018;8.570;2022-11-15T09:40:45;3.55;;;2.10;;
23236;SDS011;11787;52.018;8.570;2022-11-15T09:44:18;2.28;;;2.00;;
23236;SDS011;11787;52.018;8.570;2022-11-15T09:51:17;4.57;;;2.15;;
23236;SDS011;11787;52.018;8.570;2022-11-15T09:54:20;2.60;;;1.80;;
23236;SDS011;11787;52.018;8.570;2022-11-15T10:00:13;2.65;;;1.83;;
23236;SDS011;11787;52.018;8.570;2022-11-15T10:02:52;4.00;;;1.83;;
23236;SDS011;11787;52.018;8.570;2022-11-15T10:05:36;3.05;;;2.00;;
23236;SDS011;11787;52.018;8.570;2022-11-15T10:10:33;2.15;;;1.67;;
23236;SDS011;11787;52.018;8.570;2022-11-15T10:13:06;4.95;;;1.60;;
23236;SDS011;11787;52.018;8.570;2022-11-15T10:16:01;3.13;;;1.63;;
23236;SDS011;11787;52.018;8.570;2022-11-15T10:24:23;3.20;;;1.20;;
23236;SDS011;11787;52.018;8.570;2022-11-15T10:26:53;2.72;;;1.00;;
23236;SDS011;11787;52.018;8.570;2022-11-15T10:29:21;1.80;;;1.08;;
23236;SDS011;11787;52.018;8.570;2022-11-15T10:31:48;1.77;;;1.00;;
23236;SDS011;11787;52.018;8.570;2022-11-15T10:34:18;2.25;;;0.88;;
23236;SDS011;11787;52.018;8.570;2022-11-15T10:36:46;2.45;;;1.08;;
23236;SDS011;11787;52.018;8.570;2022-11-15T10:39:22;1.50;;;0.80;;
23236;SDS011;11787;52.018;8.570;2022-11-15T10:41:48;1.73;;;0.95;;
23236;SDS011;11787;52.018;8.570;2022-11-15T10:49:20;1.52;;;0.90;;
23236;SDS011;11787;52.018;8.570;2022-11-15T10:51:57;2.25;;;1.20;;
23236;SDS011;11787;52.018;8.570;2022-11-15T10:57:06;2.75;;;1.10;;
23236;SDS011;11787;52.018;8.570;2022-11-15T10:59:38;2.10;;;1.05;;
23236;SDS011;11787;52.018;8.570;2022-11-15T11:04:53;2.28;;;1.23;;
23236;SDS011;11787;52.018;8.570;2022-11-15T11:07:23;2.95;;;1.10;;
23236;SDS011;11787;52.018;8.570;2022-11-15T11:09:56;2.10;;;1.33;;
23236;SDS011;11787;52.018;8.570;2022-11-15T11:34:58;2.55;;;1.48;;
23236;SDS011;11787;52.018;8.570;2022-11-15T11:49:56;2.53;;;1.60;;
23236;SDS011;11787;52.018;8.570;2022-11-15T11:52:33;1.60;;;1.50;;
23236;SDS011;11787;52.018;8.570;2022-11-15T11:57:50;2.22;;;1.67;;
23236;SDS011;11787;52.018;8.570;2022-11-15T12:00:26;6.20;;;1.60;;
23236;SDS011;11787;52.018;8.570;2022-11-15T12:05:37;2.40;;;1.40;;
23236;SDS011;11787;52.018;8.570;2022-11-15T12:08:50;2.15;;;1.40;;
23236;SDS011;11787;52.018;8.570;2022-11-15T12:11:07;3.60;;;1.73;;
23236;SDS011;11787;52.018;8.570;2022-11-15T12:13:38;1.85;;;1.60;;
23236;SDS011;11787;52.018;8.570;2022-11-15T12:16:06;3.17;;;1.58;;
23236;SDS011;11787;52.018;8.570;2022-11-15T12:18:49;2.03;;;1.70;;
23236;SDS011;11787;52.018;8.570;2022-11-15T12:26:51;2.97;;;1.60;;
23236;SDS011;11787;52.018;8.570;2022-11-15T12:29:31;3.63;;;1.42;;
23236;SDS011;11787;52.018;8.570;2022-11-15T12:32:27;3.10;;;1.40;;
23236;SDS011;11787;52.018;8.570;2022-11-15T12:34:55;2.28;;;1.10;;
23236;SDS011;11787;52.018;8.570;2022-11-15T12:45:00;2.28;;;1.23;;
23236;SDS011;11787;52.018;8.570;2022-11-15T12:47:25;4.20;;;1.67;;
23236;SDS011;11787;52.018;8.570;2022-11-15T12:49:52;2.60;;;1.20;;
23236;SDS011;11787;52.018;8.570;2022-11-15T12:52:18;1.30;;;1.13;;
23236;SDS011;11787;52.018;8.570;2022-11-15T12:54:57;1.65;;;1.02;;
23236;SDS011;11787;52.018;8.570;2022-11-15T12:57:32;2.88;;;1.02;;
23236;SDS011;11787;52.018;8.570;2022-11-15T13:00:00;1.80;;;1.30;;
23236;SDS011;11787;52.018;8.570;2022-11-15T13:02:47;1.85;;;1.13;;
23236;SDS011;11787;52.018;8.570;2022-11-15T13:13:01;2.08;;;1.10;;
23236;SDS011;11787;52.018;8.570;2022-11-15T13:15:33;1.90;;;1.15;;
23236;SDS011;11787;52.018;8.570;2022-11-15T13:18:23;1.95;;;1.27;;
23236;SDS011;11787;52.018;8.570;2022-11-15T13:21:05;3.65;;;1.25;;
23236;SDS011;11787;52.018;8.570;2022-11-15T13:24:02;2.33;;;1.17;;
23236;SDS011;11787;52.018;8.570;2022-11-15T13:26:28;2.47;;;1.15;;
23236;SDS011;11787;52.018;8.570;2022-11-15T13:28:54;4.05;;;1.20;;
23236;SDS011;11787;52.018;8.570;2022-11-15T13:33:55;7.97;;;1.67;;
23236;SDS011;11787;52.018;8.570;2022-11-15T13:36:28;9.88;;;1.73;;
23236;SDS011;11787;52.018;8.570;2022-11-15T13:39:00;8.85;;;1.65;;
23236;SDS011;11787;52.018;8.570;2022-11-15T13:41:34;4.95;;;1.63;;
23236;SDS011;11787;52.018;8.570;2022-11-15T13:44:17;3.15;;;1.60;;
23236;SDS011;11787;52.018;8.570;2022-11-15T13:46:48;3.85;;;1.33;;
23236;SDS011;11787;52.018;8.570;2022-11-15T13:49:21;2.23;;;1.43;;
23236;SDS011;11787;52.018;8.570;2022-11-15T13:51:55;3.47;;;1.40;;
23236;SDS011;11787;52.018;8.570;2022-11-15T13:54:28;3.05;;;1.73;;
23236;SDS011;11787;52.018;8.570;2022-11-15T13:56:59;2.28;;;1.60;;
23236;SDS011;11787;52.018;8.570;2022-11-15T14:02:48;2.78;;;1.67;;
23236;SDS011;11787;52.018;8.570;2022-11-15T14:05:17;2.17;;;1.60;;
23236;SDS011;11787;52.018;8.570;2022-11-15T14:07:53;4.00;;;1.35;;
23236;SDS011;11787;52.018;8.570;2022-11-15T14:10:37;3.10;;;1.90;;
23236;SDS011;11787;52.018;8.570;2022-11-15T14:13:04;2.65;;;1.90;;
23236;SDS011;11787;52.018;8.570;2022-11-15T14:15:51;4.25;;;2.00;;
23236;SDS011;11787;52.018;8.570;2022-11-15T14:21:16;9.18;;;2.53;;
23236;SDS011;11787;52.018;8.570;2022-11-15T14:23:42;5.05;;;2.60;;
23236;SDS011;11787;52.018;8.570;2022-11-15T14:26:30;5.95;;;2.45;;
23236;SDS011;11787;52.018;8.570;2022-11-15T14:28:56;5.00;;;2.13;;
23236;SDS011;11787;52.018;8.570;2022-11-15T14:31:21;4.30;;;1.85;;
23236;SDS011;11787;52.018;8.570;2022-11-15T14:33:47;5.57;;;2.10;;
23236;SDS011;11787;52.018;8.570;2022-11-15T14:36:17;5.72;;;2.13;;
23236;SDS011;11787;52.018;8.570;2022-11-15T14:38:45;4.65;;;2.28;;
23236;SDS011;11787;52.018;8.570;2022-11-15T14:41:24;6.45;;;2.40;;
23236;SDS011;11787;52.018;8.570;2022-11-15T14:43:57;3.67;;;2.17;;
23236;SDS011;11787;52.018;8.570;2022-11-15T14:46:22;7.82;;;2.05;;
23236;SDS011;11787;52.018;8.570;2022-11-15T14:48:48;5.20;;;2.25;;
23236;SDS011;11787;52.018;8.570;2022-11-15T14:51:15;7.88;;;2.90;;
23236;SDS011;11787;52.018;8.570;2022-11-15T14:53:42;7.05;;;2.20;;
23236;SDS011;11787;52.018;8.570;2022-11-15T14:56:09;4.45;;;1.70;;
23236;SDS011;11787;52.018;8.570;2022-11-15T14:58:35;4.78;;;2.10;;
23236;SDS011;11787;52.018;8.570;2022-11-15T15:01:02;5.57;;;1.80;;
23236;SDS011;11787;52.018;8.570;2022-11-15T15:03:34;3.83;;;1.88;;
23236;SDS011;11787;52.018;8.570;2022-11-15T15:05:59;4.25;;;1.70;;
23236;SDS011;11787;52.018;8.570;2022-11-15T15:08:25;2.08;;;1.70;;
23236;SDS011;11787;52.018;8.570;2022-11-15T15:10:51;4.07;;;1.80;;
23236;SDS011;11787;52.018;8.570;2022-11-15T15:13:17;2.42;;;1.70;;
23236;SDS011;11787;52.018;8.570;2022-11-15T15:15:45;5.20;;;1.88;;
23236;SDS011;11787;52.018;8.570;2022-11-15T15:18:11;6.25;;;1.75;;
23236;SDS011;11787;52.018;8.570;2022-11-15T15:20:37;2.85;;;1.80;;
23236;SDS011;11787;52.018;8.570;2022-11-15T15:23:07;2.45;;;1.58;;
23236;SDS011;11787;52.018;8.570;2022-11-15T15:25:41;3.65;;;1.90;;
23236;SDS011;11787;52.018;8.570;2022-11-15T15:28:08;3.88;;;1.45;;
23236;SDS011;11787;52.018;8.570;2022-11-15T15:30:34;5.15;;;2.15;;
23236;SDS011;11787;52.018;8.570;2022-11-15T15:32:59;7.05;;;2.22;;
23236;SDS011;11787;52.018;8.570;2022-11-15T15:35:26;2.83;;;1.73;;
23236;SDS011;11787;52.018;8.570;2022-11-15T15:37:55;4.28;;;1.80;;
23236;SDS011;11787;52.018;8.570;2022-11-15T15:40:21;3.85;;;2.00;;
23236;SDS011;11787;52.018;8.570;2022-11-15T15:42:49;4.35;;;1.42;;
23236;SDS011;11787;52.018;8.570;2022-11-15T15:45:15;3.75;;;1.80;;
23236;SDS011;11787;52.018;8.570;2022-11-15T15:47:42;4.72;;;2.20;;
23236;SDS011;11787;52.018;8.570;2022-11-15T15:52:45;4.20;;;2.90;;
23236;SDS011;11787;52.018;8.570;2022-11-15T15:58:33;2.95;;;1.67;;
23236;SDS011;11787;52.018;8.570;2022-11-15T16:00:59;4.00;;;1.52;;
23236;SDS011;11787;52.018;8.570;2022-11-15T16:03:25;1.63;;;1.27;;
23236;SDS011;11787;52.018;8.570;2022-11-15T16:05:52;2.90;;;1.67;;
23236;SDS011;11787;52.018;8.570;2022-11-15T16:11:40;2.70;;;1.50;;
23236;SDS011;11787;52.018;8.570;2022-11-15T16:14:06;2.45;;;1.50;;
23236;SDS011;11787;52.018;8.570;2022-11-15T16:16:32;3.50;;;1.52;;
23236;SDS011;11787;52.018;8.570;2022-11-15T16:22:21;3.85;;;1.63;;
23236;SDS011;11787;52.018;8.570;2022-11-15T16:24:46;4.07;;;1.83;;
23236;SDS011;11787;52.018;8.570;2022-11-15T16:27:19;3.15;;;1.50;;
23236;SDS011;11787;52.018;8.570;2022-11-15T16:33:08;3.10;;;1.50;;
23236;SDS011;11787;52.018;8.570;2022-11-15T16:35:33;4.10;;;1.92;;
23236;SDS011;11787;52.018;8.570;2022-11-15T16:37:59;3.95;;;1.65;;
23236;SDS011;11787;52.018;8.570;2022-11-15T16:43:47;2.35;;;1.45;;
23236;SDS011;11787;52.018;8.570;2022-11-15T16:46:14;2.78;;;1.60;;
23236;SDS011;11787;52.018;8.570;2022-11-15T16:52:09;2.38;;;1.40;;
23236;SDS011;11787;52.018;8.570;2022-11-15T16:54:35;1.88;;;1.30;;
23236;SDS011;11787;52.018;8.570;2022-11-15T16:57:00;4.35;;;1.50;;
23236;SDS011;11787;52.018;8.570;2022-11-15T16:59:26;3.92;;;1.58;;
23236;SDS011;11787;52.018;8.570;2022-11-15T17:01:51;3.15;;;1.73;;
23236;SDS011;11787;52.018;8.570;2022-11-15T17:04:17;3.13;;;1.40;;
23236;SDS011;11787;52.018;8.570;2022-11-15T17:10:06;3.97;;;1.70;;
23236;SDS011;11787;52.018;8.570;2022-11-15T17:12:33;4.43;;;1.90;;
23236;SDS011;11787;52.018;8.570;2022-11-15T17:15:00;3.42;;;1.67;;
23236;SDS011;11787;52.018;8.570;2022-11-15T17:17:26;2.67;;;1.73;;
23236;SDS011;11787;52.018;8.570;2022-11-15T17:19:52;4.10;;;1.98;;
23236;SDS011;11787;52.018;8.570;2022-11-15T17:22:18;3.15;;;1.77;;
23236;SDS011;11787;52.018;8.570;2022-11-15T17:24:44;3.65;;;1.73;;
23236;SDS011;11787;52.018;8.570;2022-11-15T17:27:10;2.42;;;1.67;;
23236;SDS011;11787;52.018;8.570;2022-11-15T17:29:35;2.70;;;1.55;;
23236;SDS011;11787;52.018;8.570;2022-11-15T17:32:01;3.92;;;1.58;;
23236;SDS011;11787;52.018;8.570;2022-11-15T17:38:01;2.83;;;1.40;;
23236;SDS011;11787;52.018;8.570;2022-11-15T17:40:26;2.40;;;1.38;;
23236;SDS011;11787;52.018;8.570;2022-11-15T17:42:52;4.93;;;1.63;;
23236;SDS011;11787;52.018;8.570;2022-11-15T17:45:17;3.92;;;1.70;;
23236;SDS011;11787;52.018;8.570;2022-11-15T17:47:43;2.88;;;1.40;;
23236;SDS011;11787;52.018;8.570;2022-11-15T17:50:08;2.63;;;1.70;;
23236;SDS011;11787;52.018;8.570;2022-11-15T17:56:01;3.00;;;1.70;;
23236;SDS011;11787;52.018;8.570;2022-11-15T17:58:31;3.20;;;1.40;;
23236;SDS011;11787;52.018;8.570;2022-11-15T18:04:10;2.45;;;1.90;;
23236;SDS011;11787;52.018;8.570;2022-11-15T18:06:37;3.33;;;1.50;;
23236;SDS011;11787;52.018;8.570;2022-11-15T18:09:03;3.72;;;1.80;;
23236;SDS011;11787;52.018;8.570;2022-11-15T18:11:30;2.15;;;1.58;;
23236;SDS011;11787;52.018;8.570;2022-11-15T18:13:59;2.28;;;1.73;;
23236;SDS011;11787;52.018;8.570;2022-11-15T18:16:27;1.88;;;1.60;;
23236;SDS011;11787;52.018;8.570;2022-11-15T18:18:55;4.20;;;1.45;;
23236;SDS011;11787;52.018;8.570;2022-11-15T18:21:22;3.95;;;1.60;;
23236;SDS011;11787;52.018;8.570;2022-11-15T18:23:56;4.95;;;1.70;;
23236;SDS011;11787;52.018;8.570;2022-11-15T18:26:24;2.38;;;1.70;;
23236;SDS011;11787;52.018;8.570;2022-11-15T18:28:51;3.67;;;1.73;;
23236;SDS011;11787;52.018;8.570;2022-11-15T18:31:19;2.45;;;1.73;;
23236;SDS011;11787;52.018;8.570;2022-11-15T18:33:49;4.07;;;1.88;;
23236;SDS011;11787;52.018;8.570;2022-11-15T18:36:20;2.33;;;1.75;;
23236;SDS011;11787;52.018;8.570;2022-11-15T18:38:47;4.25;;;1.73;;
23236;SDS011;11787;52.018;8.570;2022-11-15T18:44:35;4.55;;;1.60;;
23236;SDS011;11787;52.018;8.570;2022-11-15T18:47:00;3.40;;;1.85;;
23236;SDS011;11787;52.018;8.570;2022-11-15T18:49:26;3.78;;;1.70;;
23236;SDS011;11787;52.018;8.570;2022-11-15T18:51:51;1.92;;;1.48;;
23236;SDS011;11787;52.018;8.570;2022-11-15T18:54:17;4.43;;;1.85;;
23236;SDS011;11787;52.018;8.570;2022-11-15T19:00:05;2.03;;;1.50;;
23236;SDS011;11787;52.018;8.570;2022-11-15T19:02:32;2.72;;;1.85;;
23236;SDS011;11787;52.018;8.570;2022-11-15T19:04:58;2.13;;;1.52;;
23236;SDS011;11787;52.018;8.570;2022-11-15T19:07:24;3.25;;;1.58;;
23236;SDS011;11787;52.018;8.570;2022-11-15T19:09:49;2.22;;;1.45;;
23236;SDS011;11787;52.018;8.570;2022-11-15T19:12:15;2.55;;;1.63;;
23236;SDS011;11787;52.018;8.570;2022-11-15T19:18:02;2.70;;;1.70;;
23236;SDS011;11787;52.018;8.570;2022-11-15T19:20:28;3.95;;;1.63;;
23236;SDS011;11787;52.018;8.570;2022-11-15T19:22:54;1.70;;;1.50;;
23236;SDS011;11787;52.018;8.570;2022-11-15T19:25:19;4.80;;;1.67;;
23236;SDS011;11787;52.018;8.570;2022-11-15T19:27:46;2.10;;;1.42;;
23236;SDS011;11787;52.018;8.570;2022-11-15T19:30:12;2.63;;;1.70;;
23236;SDS011;11787;52.018;8.570;2022-11-15T19:32:37;2.20;;;1.70;;
23236;SDS011;11787;52.018;8.570;2022-11-15T19:35:04;2.90;;;2.00;;
23236;SDS011;11787;52.018;8.570;2022-11-15T19:37:29;3.08;;;1.60;;
23236;SDS011;11787;52.018;8.570;2022-11-15T19:39:55;1.70;;;1.45;;
23236;SDS011;11787;52.018;8.570;2022-11-15T19:42:20;3.75;;;1.58;;
23236;SDS011;11787;52.018;8.570;2022-11-15T19:44:46;3.03;;;1.35;;
23236;SDS011;11787;52.018;8.570;2022-11-15T19:47:12;2.53;;;1.70;;
23236;SDS011;11787;52.018;8.570;2022-11-15T19:52:59;2.35;;;1.52;;
23236;SDS011;11787;52.018;8.570;2022-11-15T19:55:25;1.95;;;1.40;;
23236;SDS011;11787;52.018;8.570;2022-11-15T19:57:50;2.63;;;1.65;;
23236;SDS011;11787;52.018;8.570;2022-11-15T20:00:16;3.67;;;1.60;;
23236;SDS011;11787;52.018;8.570;2022-11-15T20:02:42;4.97;;;2.17;;
23236;SDS011;11787;52.018;8.570;2022-11-15T20:05:07;3.03;;;1.73;;
23236;SDS011;11787;52.018;8.570;2022-11-15T20:07:33;2.22;;;1.73;;
23236;SDS011;11787;52.018;8.570;2022-11-15T20:09:58;1.92;;;1.60;;
23236;SDS011;11787;52.018;8.570;2022-11-15T20:12:24;2.40;;;1.45;;
23236;SDS011;11787;52.018;8.570;2022-11-15T20:14:50;1.90;;;1.50;;
23236;SDS011;11787;52.018;8.570;2022-11-15T20:17:15;2.60;;;1.60;;
23236;SDS011;11787;52.018;8.570;2022-11-15T20:19:41;4.40;;;1.42;;
23236;SDS011;11787;52.018;8.570;2022-11-15T20:22:07;2.58;;;1.80;;
23236;SDS011;11787;52.018;8.570;2022-11-15T20:24:32;2.25;;;1.77;;
23236;SDS011;11787;52.018;8.570;2022-11-15T20:26:59;4.45;;;1.80;;
23236;SDS011;11787;52.018;8.570;2022-11-15T20:29:24;2.83;;;1.50;;
23236;SDS011;11787;52.018;8.570;2022-11-15T20:35:12;3.85;;;1.67;;
23236;SDS011;11787;52.018;8.570;2022-11-15T20:37:38;2.45;;;1.80;;
23236;SDS011;11787;52.018;8.570;2022-11-15T20:40:03;2.63;;;1.75;;
23236;SDS011;11787;52.018;8.570;2022-11-15T20:42:29;2.75;;;2.00;;
23236;SDS011;11787;52.018;8.570;2022-11-15T20:44:55;2.83;;;1.83;;
23236;SDS011;11787;52.018;8.570;2022-11-15T20:47:20;3.95;;;1.85;;
23236;SDS011;11787;52.018;8.570;2022-11-15T20:49:46;3.80;;;1.77;;
23236;SDS011;11787;52.018;8.570;2022-11-15T20:52:11;2.97;;;1.75;;
23236;SDS011;11787;52.018;8.570;2022-11-15T20:57:59;2.30;;;1.80;;
23236;SDS011;11787;52.018;8.570;2022-11-15T21:00:25;1.85;;;1.40;;
23236;SDS011;11787;52.018;8.570;2022-11-15T21:02:50;3.28;;;1.75;;
23236;SDS011;11787;52.018;8.570;2022-11-15T21:05:17;3.92;;;1.90;;
23236;SDS011;11787;52.018;8.570;2022-11-15T21:07:42;2.88;;;2.00;;
23236;SDS011;11787;52.018;8.570;2022-11-15T21:10:08;2.53;;;1.60;;
23236;SDS011;11787;52.018;8.570;2022-11-15T21:12:53;3.25;;;2.10;;
23236;SDS011;11787;52.018;8.570;2022-11-15T21:15:18;3.40;;;1.63;;
23236;SDS011;11787;52.018;8.570;2022-11-15T21:17:44;2.53;;;1.80;;
23236;SDS011;11787;52.018;8.570;2022-11-15T21:23:32;2.63;;;1.92;;
23236;SDS011;11787;52.018;8.570;2022-11-15T21:25:57;2.15;;;1.67;;
23236;SDS011;11787;52.018;8.570;2022-11-15T21:28:23;2.88;;;1.63;;
23236;SDS011;11787;52.018;8.570;2022-11-15T21:30:56;3.58;;;1.85;;
23236;SDS011;11787;52.018;8.570;2022-11-15T21:33:23;3.55;;;1.70;;
23236;SDS011;11787;52.018;8.570;2022-11-15T21:35:51;3.30;;;2.03;;
23236;SDS011;11787;52.018;8.570;2022-11-15T21:38:18;4.07;;;1.63;;
23236;SDS011;11787;52.018;8.570;2022-11-15T21:40:43;3.55;;;1.80;;
23236;SDS011;11787;52.018;8.570;2022-11-15T21:43:09;3.75;;;1.67;;
23236;SDS011;11787;52.018;8.570;2022-11-15T21:45:35;3.85;;;2.17;;
23236;SDS011;11787;52.018;8.570;2022-11-15T21:48:00;3.78;;;1.70;;
23236;SDS011;11787;52.018;8.570;2022-11-15T21:50:26;2.75;;;1.80;;
23236;SDS011;11787;52.018;8.570;2022-11-15T21:52:51;3.03;;;1.90;;
23236;SDS011;11787;52.018;8.570;2022-11-15T21:55:17;4.63;;;1.92;;
23236;SDS011;11787;52.018;8.570;2022-11-15T21:57:42;3.83;;;1.92;;
23236;SDS011;11787;52.018;8.570;2022-11-15T22:00:08;5.25;;;1.80;;
23236;SDS011;11787;52.018;8.570;2022-11-15T22:02:53;1.70;;;1.60;;
23236;SDS011;11787;52.018;8.570;2022-11-15T22:05:18;2.40;;;1.83;;
23236;SDS011;11787;52.018;8.570;2022-11-15T22:11:06;3.03;;;2.17;;
23236;SDS011;11787;52.018;8.570;2022-11-15T22:13:32;2.80;;;1.70;;
23236;SDS011;11787;52.018;8.570;2022-11-15T22:15:58;4.35;;;2.10;;
23236;SDS011;11787;52.018;8.570;2022-11-15T22:18:23;3.53;;;1.92;;
23236;SDS011;11787;52.018;8.570;2022-11-15T22:23:22;3.42;;;2.00;;
23236;SDS011;11787;52.018;8.570;2022-11-15T22:25:48;3.47;;;2.17;;
23236;SDS011;11787;52.018;8.570;2022-11-15T22:28:14;3.85;;;3.03;;
23236;SDS011;11787;52.018;8.570;2022-11-15T22:30:43;3.97;;;2.10;;
23236;SDS011;11787;52.018;8.570;2022-11-15T22:33:09;2.95;;;2.10;;
23236;SDS011;11787;52.018;8.570;2022-11-15T22:35:35;2.67;;;2.00;;
23236;SDS011;11787;52.018;8.570;2022-11-15T22:38:01;4.25;;;2.17;;
23236;SDS011;11787;52.018;8.570;2022-11-15T22:40:27;3.63;;;2.10;;
23236;SDS011;11787;52.018;8.570;2022-11-15T22:42:53;3.08;;;1.88;;
23236;SDS011;11787;52.018;8.570;2022-11-15T22:45:18;3.72;;;1.95;;
23236;SDS011;11787;52.018;8.570;2022-11-15T22:47:44;3.25;;;2.15;;
23236;SDS011;11787;52.018;8.570;2022-11-15T22:50:09;5.10;;;2.42;;
23236;SDS011;11787;52.018;8.570;2022-11-15T22:52:35;2.80;;;2.20;;
23236;SDS011;11787;52.018;8.570;2022-11-15T22:55:00;2.50;;;1.88;;
23236;SDS011;11787;52.018;8.570;2022-11-15T22:57:26;2.40;;;1.98;;
23236;SDS011;11787;52.018;8.570;2022-11-15T22:59:52;5.72;;;2.40;;
23236;SDS011;11787;52.018;8.570;2022-11-15T23:05:39;3.85;;;2.25;;
23236;SDS011;11787;52.018;8.570;2022-11-15T23:08:05;2.97;;;2.20;;
23236;SDS011;11787;52.018;8.570;2022-11-15T23:10:31;2.60;;;2.08;;
23236;SDS011;11787;52.018;8.570;2022-11-15T23:15:45;4.88;;;2.50;;
23236;SDS011;11787;52.018;8.570;2022-11-15T23:18:56;3.28;;;2.40;;
23236;SDS011;11787;52.018;8.570;2022-11-15T23:21:24;5.32;;;2.45;;
23236;SDS011;11787;52.018;8.570;2022-11-15T23:24:10;6.80;;;2.38;;
23236;SDS011;11787;52.018;8.570;2022-11-15T23:26:37;3.30;;;2.55;;
23236;SDS011;11787;52.018;8.570;2022-11-15T23:29:04;4.82;;;2.35;;
23236;SDS011;11787;52.018;8.570;2022-11-15T23:31:30;3.70;;;2.45;;
23236;SDS011;11787;52.018;8.570;2022-11-15T23:34:14;3.47;;;2.35;;
23236;SDS011;11787;52.018;8.570;2022-11-15T23:36:40;3.85;;;2.83;;
23236;SDS011;11787;52.018;8.570;2022-11-15T23:39:06;3.47;;;2.40;;
23236;SDS011;11787;52.018;8.570;2022-11-15T23:41:32;4.38;;;2.65;;
23236;SDS011;11787;52.018;8.570;2022-11-15T23:43:58;4.18;;;2.20;;
23236;SDS011;11787;52.018;8.570;2022-11-15T23:46:24;4.55;;;2.47;;
23236;SDS011;11787;52.018;8.570;2022-11-15T23:48:49;2.75;;;2.30;;
23236;SDS011;11787;52.018;8.570;2022-11-15T23:51:15;4.45;;;2.35;;
23236;SDS011;11787;52.018;8.570;2022-11-15T23:53:41;4.18;;;2.65;;
23236;SDS011;11787;52.018;8.570;2022-11-15T23:56:11;2.85;;;2.60;;
23236;SDS011;11787;52.018;8.570;2022-11-15T23:58:38;4.55;;;2.70;;
